Terminal Aerodrome Forecast
Issued by NWS

Home | Current Version | Previous Version | Text Only | Print | Product List | Glossary On
Versions: 1 2 3 4 5 6 7 8 9 10 11 12
562
FTUS46 KSGX 260520
TAFONT
TAF
KONT 260520Z 2606/2712 25005KT P6SM SKC
     FM261100 VRB04KT 5SM BR BKN010
     FM261500 VRB04KT 6SM HZ SCT012
     FM262100 25012KT P6SM SKC
     FM270500 VRB05KT P6SM SKC
     FM271000 VRB04KT 5SM BR BKN010=

USA.gov is the U.S. government's official web portal to all federal, state and local government web resources and services.